FAMM/MBD METAR and TAF weather

Enter ICAO airport designator
Station Type Date Time Source
FAMM METAR 2019/12/11 08:00 UTC NOAA

FAMM 110800Z 32006KT CAVOK 24/13 Q1016 NOSIG


Station Type Date Time Source
FAMM Decoded METAR 2019/12/11 08:00 UTC NOAA

Mafikeng Intl. Ad, South Africa (FAMM) 25-47S 025-32E 1300M
Dec 11, 2019 - 03:00 AM EST / 2019.12.11 0800 UTC
Wind: from the NW (320 degrees) at 7 MPH (6 KT):0
Visibility: greater than 7 mile(s):0
Temperature: 75 F (24 C)
Dew Point: 55 F (13 C)
Relative Humidity: 50%
Pressure (altimeter): 30.00 in. Hg (1016 hPa)
ob: FAMM 110800Z 32006KT CAVOK 24/13 Q1016 NOSIG
cycle: 8

Station Type Date Time Source
FAMM TAF 2019/01/01 10:00 UTC NOAA

TAF FAMM 010900Z 0110/0118 04008KT 9999 BKN015
BECMG 0111/0113 34010KT BKN025 TX25/0113Z TN22/0118Z

Example: see airport list